sensor_id;sensor_type;location;lat;lon;timestamp;temperature;humidity
47590;DHT22;33316;52.298;9.056;2023-05-02T00:00:20;14.20;78.00
47590;DHT22;33316;52.298;9.056;2023-05-02T00:02:46;14.20;78.10
47590;DHT22;33316;52.298;9.056;2023-05-02T00:05:14;14.20;78.20
47590;DHT22;33316;52.298;9.056;2023-05-02T00:07:41;14.20;77.40
47590;DHT22;33316;52.298;9.056;2023-05-02T00:10:08;14.20;78.20
47590;DHT22;33316;52.298;9.056;2023-05-02T00:12:35;14.20;78.30
47590;DHT22;33316;52.298;9.056;2023-05-02T00:15:03;14.20;78.00
47590;DHT22;33316;52.298;9.056;2023-05-02T00:17:30;14.20;78.10
47590;DHT22;33316;52.298;9.056;2023-05-02T00:19:58;14.20;78.20
47590;DHT22;33316;52.298;9.056;2023-05-02T00:22:26;14.10;78.20
47590;DHT22;33316;52.298;9.056;2023-05-02T00:24:55;14.10;78.20
47590;DHT22;33316;52.298;9.056;2023-05-02T00:27:22;14.10;78.30
47590;DHT22;33316;52.298;9.056;2023-05-02T00:29:49;14.10;78.20
47590;DHT22;33316;52.298;9.056;2023-05-02T00:32:16;14.10;77.90
47590;DHT22;33316;52.298;9.056;2023-05-02T00:34:43;14.10;77.40
47590;DHT22;33316;52.298;9.056;2023-05-02T00:37:10;14.10;77.20
47590;DHT22;33316;52.298;9.056;2023-05-02T00:39:38;14.10;77.00
47590;DHT22;33316;52.298;9.056;2023-05-02T00:42:05;14.10;76.80
47590;DHT22;33316;52.298;9.056;2023-05-02T00:44:32;14.10;76.70
47590;DHT22;33316;52.298;9.056;2023-05-02T00:47:01;14.10;76.70
47590;DHT22;33316;52.298;9.056;2023-05-02T00:49:29;14.10;76.80
47590;DHT22;33316;52.298;9.056;2023-05-02T00:51:57;14.10;76.80
47590;DHT22;33316;52.298;9.056;2023-05-02T00:54:24;14.10;76.70
47590;DHT22;33316;52.298;9.056;2023-05-02T00:56:52;14.00;76.70
47590;DHT22;33316;52.298;9.056;2023-05-02T00:59:19;14.00;76.70
47590;DHT22;33316;52.298;9.056;2023-05-02T01:01:54;14.00;77.00
47590;DHT22;33316;52.298;9.056;2023-05-02T01:04:33;14.00;77.00
47590;DHT22;33316;52.298;9.056;2023-05-02T01:07:17;14.00;77.00
47590;DHT22;33316;52.298;9.056;2023-05-02T01:09:53;14.00;77.20
47590;DHT22;33316;52.298;9.056;2023-05-02T01:12:27;14.00;77.30
47590;DHT22;33316;52.298;9.056;2023-05-02T01:14:55;14.00;77.30
47590;DHT22;33316;52.298;9.056;2023-05-02T01:17:26;14.00;77.30
47590;DHT22;33316;52.298;9.056;2023-05-02T01:19:56;14.00;77.40
47590;DHT22;33316;52.298;9.056;2023-05-02T01:22:25;14.00;77.60
47590;DHT22;33316;52.298;9.056;2023-05-02T01:25:01;14.00;77.60
47590;DHT22;33316;52.298;9.056;2023-05-02T01:27:39;14.00;77.90
47590;DHT22;33316;52.298;9.056;2023-05-02T01:30:11;14.00;77.90
47590;DHT22;33316;52.298;9.056;2023-05-02T01:32:42;13.90;77.90
47590;DHT22;33316;52.298;9.056;2023-05-02T01:35:13;13.90;78.10
47590;DHT22;33316;52.298;9.056;2023-05-02T01:37:42;13.90;78.20
47590;DHT22;33316;52.298;9.056;2023-05-02T01:40:12;13.90;78.30
47590;DHT22;33316;52.298;9.056;2023-05-02T01:42:40;13.90;78.40
47590;DHT22;33316;52.298;9.056;2023-05-02T01:45:11;13.90;78.40
47590;DHT22;33316;52.298;9.056;2023-05-02T01:47:40;13.90;78.60
47590;DHT22;33316;52.298;9.056;2023-05-02T01:50:11;13.90;78.70
47590;DHT22;33316;52.298;9.056;2023-05-02T01:52:40;13.90;78.70
47590;DHT22;33316;52.298;9.056;2023-05-02T01:55:12;13.80;78.70
47590;DHT22;33316;52.298;9.056;2023-05-02T01:57:40;13.80;78.80
47590;DHT22;33316;52.298;9.056;2023-05-02T02:00:09;13.80;78.80
47590;DHT22;33316;52.298;9.056;2023-05-02T02:02:38;13.80;79.00
47590;DHT22;33316;52.298;9.056;2023-05-02T02:05:08;13.80;79.20
47590;DHT22;33316;52.298;9.056;2023-05-02T02:07:36;13.80;79.30
47590;DHT22;33316;52.298;9.056;2023-05-02T02:10:04;13.80;79.40
47590;DHT22;33316;52.298;9.056;2023-05-02T02:12:35;13.80;79.40
47590;DHT22;33316;52.298;9.056;2023-05-02T02:15:08;13.70;79.50
47590;DHT22;33316;52.298;9.056;2023-05-02T02:17:40;13.70;79.60
47590;DHT22;33316;52.298;9.056;2023-05-02T02:20:09;13.70;79.70
47590;DHT22;33316;52.298;9.056;2023-05-02T02:22:39;13.70;79.70
47590;DHT22;33316;52.298;9.056;2023-05-02T02:25:10;13.70;79.70
47590;DHT22;33316;52.298;9.056;2023-05-02T02:27:37;13.70;79.80
47590;DHT22;33316;52.298;9.056;2023-05-02T02:30:06;13.70;79.80
47590;DHT22;33316;52.298;9.056;2023-05-02T02:32:33;13.70;79.90
47590;DHT22;33316;52.298;9.056;2023-05-02T02:35:02;13.70;79.90
47590;DHT22;33316;52.298;9.056;2023-05-02T02:37:30;13.70;80.00
47590;DHT22;33316;52.298;9.056;2023-05-02T02:40:03;13.70;80.10
47590;DHT22;33316;52.298;9.056;2023-05-02T02:42:35;13.70;80.30
47590;DHT22;33316;52.298;9.056;2023-05-02T02:45:12;13.70;80.30
47590;DHT22;33316;52.298;9.056;2023-05-02T02:47:46;13.60;80.40
47590;DHT22;33316;52.298;9.056;2023-05-02T02:50:19;13.60;80.40
47590;DHT22;33316;52.298;9.056;2023-05-02T02:52:52;13.60;80.50
47590;DHT22;33316;52.298;9.056;2023-05-02T02:55:29;13.60;80.60
47590;DHT22;33316;52.298;9.056;2023-05-02T02:57:59;13.60;80.80
47590;DHT22;33316;52.298;9.056;2023-05-02T03:00:28;13.60;80.80
47590;DHT22;33316;52.298;9.056;2023-05-02T03:02:55;13.60;80.90
47590;DHT22;33316;52.298;9.056;2023-05-02T03:05:24;13.60;80.90
47590;DHT22;33316;52.298;9.056;2023-05-02T03:07:51;13.60;81.20
47590;DHT22;33316;52.298;9.056;2023-05-02T03:10:18;13.60;81.20
47590;DHT22;33316;52.298;9.056;2023-05-02T03:12:44;13.50;81.40
47590;DHT22;33316;52.298;9.056;2023-05-02T03:15:21;13.60;81.60
47590;DHT22;33316;52.298;9.056;2023-05-02T03:17:51;13.50;81.70
47590;DHT22;33316;52.298;9.056;2023-05-02T03:20:18;13.50;81.70
47590;DHT22;33316;52.298;9.056;2023-05-02T03:22:45;13.50;81.70
47590;DHT22;33316;52.298;9.056;2023-05-02T03:25:12;13.50;81.80
47590;DHT22;33316;52.298;9.056;2023-05-02T03:27:39;13.50;81.80
47590;DHT22;33316;52.298;9.056;2023-05-02T03:30:07;13.50;81.90
47590;DHT22;33316;52.298;9.056;2023-05-02T03:32:34;13.50;82.20
47590;DHT22;33316;52.298;9.056;2023-05-02T03:35:00;13.50;82.10
47590;DHT22;33316;52.298;9.056;2023-05-02T03:37:27;13.50;82.10
47590;DHT22;33316;52.298;9.056;2023-05-02T03:39:55;13.50;82.20
47590;DHT22;33316;52.298;9.056;2023-05-02T03:42:22;13.50;82.40
47590;DHT22;33316;52.298;9.056;2023-05-02T03:44:51;13.50;82.50
47590;DHT22;33316;52.298;9.056;2023-05-02T03:47:17;13.50;82.60
47590;DHT22;33316;52.298;9.056;2023-05-02T03:49:44;13.50;82.80
47590;DHT22;33316;52.298;9.056;2023-05-02T03:52:11;13.50;82.90
47590;DHT22;33316;52.298;9.056;2023-05-02T03:54:38;13.40;83.10
47590;DHT22;33316;52.298;9.056;2023-05-02T03:57:06;13.50;83.40
47590;DHT22;33316;52.298;9.056;2023-05-02T03:59:33;13.40;83.40
47590;DHT22;33316;52.298;9.056;2023-05-02T04:02:00;13.40;83.60
47590;DHT22;33316;52.298;9.056;2023-05-02T04:04:27;13.40;83.60
47590;DHT22;33316;52.298;9.056;2023-05-02T04:06:53;13.40;83.80
47590;DHT22;33316;52.298;9.056;2023-05-02T04:09:20;13.40;84.10
47590;DHT22;33316;52.298;9.056;2023-05-02T04:11:49;13.40;84.30
47590;DHT22;33316;52.298;9.056;2023-05-02T04:14:17;13.40;84.40
47590;DHT22;33316;52.298;9.056;2023-05-02T04:16:47;13.40;84.50
47590;DHT22;33316;52.298;9.056;2023-05-02T04:19:14;13.30;84.60
47590;DHT22;33316;52.298;9.056;2023-05-02T04:21:41;13.30;84.70
47590;DHT22;33316;52.298;9.056;2023-05-02T04:24:08;13.30;84.70
47590;DHT22;33316;52.298;9.056;2023-05-02T04:26:35;13.30;84.70
47590;DHT22;33316;52.298;9.056;2023-05-02T04:29:02;13.20;84.70
47590;DHT22;33316;52.298;9.056;2023-05-02T04:31:30;13.20;84.60
47590;DHT22;33316;52.298;9.056;2023-05-02T04:33:57;13.30;84.80
47590;DHT22;33316;52.298;9.056;2023-05-02T04:36:24;13.30;84.90
47590;DHT22;33316;52.298;9.056;2023-05-02T04:38:52;13.20;84.90
47590;DHT22;33316;52.298;9.056;2023-05-02T04:41:19;13.20;85.00
47590;DHT22;33316;52.298;9.056;2023-05-02T04:43:45;13.20;85.00
47590;DHT22;33316;52.298;9.056;2023-05-02T04:46:12;13.20;85.00
47590;DHT22;33316;52.298;9.056;2023-05-02T04:48:40;13.30;85.10
47590;DHT22;33316;52.298;9.056;2023-05-02T04:51:07;13.20;85.00
47590;DHT22;33316;52.298;9.056;2023-05-02T04:53:34;13.20;84.90
47590;DHT22;33316;52.298;9.056;2023-05-02T04:56:01;13.20;84.90
47590;DHT22;33316;52.298;9.056;2023-05-02T04:58:27;13.20;84.90
47590;DHT22;33316;52.298;9.056;2023-05-02T05:00:54;13.20;84.90
47590;DHT22;33316;52.298;9.056;2023-05-02T05:03:21;13.20;84.90
47590;DHT22;33316;52.298;9.056;2023-05-02T05:05:49;13.20;85.00
47590;DHT22;33316;52.298;9.056;2023-05-02T05:08:15;13.20;85.20
47590;DHT22;33316;52.298;9.056;2023-05-02T05:10:42;13.00;84.50
47590;DHT22;33316;52.298;9.056;2023-05-02T05:13:09;12.70;84.50
47590;DHT22;33316;52.298;9.056;2023-05-02T05:15:36;12.50;85.10
47590;DHT22;33316;52.298;9.056;2023-05-02T05:18:03;12.30;85.40
47590;DHT22;33316;52.298;9.056;2023-05-02T05:20:32;12.10;85.80
47590;DHT22;33316;52.298;9.056;2023-05-02T05:23:00;12.00;86.40
47590;DHT22;33316;52.298;9.056;2023-05-02T05:25:27;11.90;86.60
47590;DHT22;33316;52.298;9.056;2023-05-02T05:27:54;11.70;86.60
47590;DHT22;33316;52.298;9.056;2023-05-02T05:30:21;11.50;86.50
47590;DHT22;33316;52.298;9.056;2023-05-02T05:32:48;11.50;86.80
47590;DHT22;33316;52.298;9.056;2023-05-02T05:35:15;11.30;86.90
47590;DHT22;33316;52.298;9.056;2023-05-02T05:37:42;11.20;87.20
47590;DHT22;33316;52.298;9.056;2023-05-02T05:40:10;11.10;87.40
47590;DHT22;33316;52.298;9.056;2023-05-02T05:42:37;11.10;87.70
47590;DHT22;33316;52.298;9.056;2023-05-02T05:45:04;11.00;87.80
47590;DHT22;33316;52.298;9.056;2023-05-02T05:47:31;10.90;88.10
47590;DHT22;33316;52.298;9.056;2023-05-02T05:49:57;10.80;88.10
47590;DHT22;33316;52.298;9.056;2023-05-02T05:52:24;10.70;88.10
47590;DHT22;33316;52.298;9.056;2023-05-02T05:54:52;10.70;88.30
47590;DHT22;33316;52.298;9.056;2023-05-02T05:57:20;10.70;88.50
47590;DHT22;33316;52.298;9.056;2023-05-02T05:59:47;10.70;88.70
47590;DHT22;33316;52.298;9.056;2023-05-02T06:02:14;10.80;88.80
47590;DHT22;33316;52.298;9.056;2023-05-02T06:04:40;10.70;88.90
47590;DHT22;33316;52.298;9.056;2023-05-02T06:07:07;10.70;88.60
47590;DHT22;33316;52.298;9.056;2023-05-02T06:09:34;10.60;88.60
47590;DHT22;33316;52.298;9.056;2023-05-02T06:12:00;10.60;88.90
47590;DHT22;33316;52.298;9.056;2023-05-02T06:14:28;10.50;89.20
47590;DHT22;33316;52.298;9.056;2023-05-02T06:16:57;10.50;89.10
47590;DHT22;33316;52.298;9.056;2023-05-02T06:19:24;10.40;89.30
47590;DHT22;33316;52.298;9.056;2023-05-02T06:21:51;10.50;89.10
47590;DHT22;33316;52.298;9.056;2023-05-02T06:24:17;10.50;88.90
47590;DHT22;33316;52.298;9.056;2023-05-02T06:26:44;10.60;88.80
47590;DHT22;33316;52.298;9.056;2023-05-02T06:29:12;10.60;88.60
47590;DHT22;33316;52.298;9.056;2023-05-02T06:31:40;10.70;88.30
47590;DHT22;33316;52.298;9.056;2023-05-02T06:34:06;10.80;88.40
47590;DHT22;33316;52.298;9.056;2023-05-02T06:36:33;10.80;88.20
47590;DHT22;33316;52.298;9.056;2023-05-02T06:39:00;11.00;88.10
47590;DHT22;33316;52.298;9.056;2023-05-02T06:41:26;11.00;87.90
47590;DHT22;33316;52.298;9.056;2023-05-02T06:43:53;11.10;87.70
47590;DHT22;33316;52.298;9.056;2023-05-02T06:46:20;11.20;87.50
47590;DHT22;33316;52.298;9.056;2023-05-02T06:48:48;11.20;86.90
47590;DHT22;33316;52.298;9.056;2023-05-02T06:51:15;11.20;86.40
47590;DHT22;33316;52.298;9.056;2023-05-02T06:53:43;11.30;86.10
47590;DHT22;33316;52.298;9.056;2023-05-02T06:56:10;11.30;85.90
47590;DHT22;33316;52.298;9.056;2023-05-02T06:58:37;11.40;85.60
47590;DHT22;33316;52.298;9.056;2023-05-02T07:01:03;11.40;84.80
47590;DHT22;33316;52.298;9.056;2023-05-02T07:03:30;11.40;84.30
47590;DHT22;33316;52.298;9.056;2023-05-02T07:06:01;11.40;83.30
47590;DHT22;33316;52.298;9.056;2023-05-02T07:08:28;11.30;82.90
47590;DHT22;33316;52.298;9.056;2023-05-02T07:10:57;11.20;82.70
47590;DHT22;33316;52.298;9.056;2023-05-02T07:13:24;11.20;82.80
47590;DHT22;33316;52.298;9.056;2023-05-02T07:15:51;11.10;82.80
47590;DHT22;33316;52.298;9.056;2023-05-02T07:18:18;11.10;82.80
47590;DHT22;33316;52.298;9.056;2023-05-02T07:20:46;11.10;82.80
47590;DHT22;33316;52.298;9.056;2023-05-02T07:23:17;11.10;82.90
47590;DHT22;33316;52.298;9.056;2023-05-02T07:25:44;11.20;83.00
47590;DHT22;33316;52.298;9.056;2023-05-02T07:28:12;11.20;82.80
47590;DHT22;33316;52.298;9.056;2023-05-02T07:30:39;11.30;82.10
47590;DHT22;33316;52.298;9.056;2023-05-02T07:33:06;11.20;80.90
47590;DHT22;33316;52.298;9.056;2023-05-02T07:35:35;11.20;80.80
47590;DHT22;33316;52.298;9.056;2023-05-02T07:38:02;11.10;80.60
47590;DHT22;33316;52.298;9.056;2023-05-02T07:40:33;11.10;80.80
47590;DHT22;33316;52.298;9.056;2023-05-02T07:43:00;11.10;80.50
47590;DHT22;33316;52.298;9.056;2023-05-02T07:45:27;11.10;80.50
47590;DHT22;33316;52.298;9.056;2023-05-02T07:47:53;11.10;80.80
47590;DHT22;33316;52.298;9.056;2023-05-02T07:50:20;11.10;80.80
47590;DHT22;33316;52.298;9.056;2023-05-02T07:52:50;11.20;80.70
47590;DHT22;33316;52.298;9.056;2023-05-02T07:55:20;11.30;80.50
47590;DHT22;33316;52.298;9.056;2023-05-02T07:57:48;11.30;80.00
47590;DHT22;33316;52.298;9.056;2023-05-02T08:00:16;11.40;79.70
47590;DHT22;33316;52.298;9.056;2023-05-02T08:02:42;11.40;79.50
47590;DHT22;33316;52.298;9.056;2023-05-02T08:05:09;11.40;79.50
47590;DHT22;33316;52.298;9.056;2023-05-02T08:07:39;11.40;79.30
47590;DHT22;33316;52.298;9.056;2023-05-02T08:10:06;11.40;78.60
47590;DHT22;33316;52.298;9.056;2023-05-02T08:12:37;11.50;78.50
47590;DHT22;33316;52.298;9.056;2023-05-02T08:15:19;11.50;78.40
47590;DHT22;33316;52.298;9.056;2023-05-02T08:17:54;11.50;78.20
47590;DHT22;33316;52.298;9.056;2023-05-02T08:20:25;11.50;78.00
47590;DHT22;33316;52.298;9.056;2023-05-02T08:22:52;11.50;77.70
47590;DHT22;33316;52.298;9.056;2023-05-02T08:25:21;11.50;77.80
47590;DHT22;33316;52.298;9.056;2023-05-02T08:27:48;11.50;77.50
47590;DHT22;33316;52.298;9.056;2023-05-02T08:30:15;11.50;77.00
47590;DHT22;33316;52.298;9.056;2023-05-02T08:32:45;11.50;76.60
47590;DHT22;33316;52.298;9.056;2023-05-02T08:35:12;11.50;76.20
47590;DHT22;33316;52.298;9.056;2023-05-02T08:37:41;11.60;76.50
47590;DHT22;33316;52.298;9.056;2023-05-02T08:40:12;11.60;76.00
47590;DHT22;33316;52.298;9.056;2023-05-02T08:42:53;11.60;75.40
47590;DHT22;33316;52.298;9.056;2023-05-02T08:45:21;11.60;75.60
47590;DHT22;33316;52.298;9.056;2023-05-02T08:47:50;11.60;75.50
47590;DHT22;33316;52.298;9.056;2023-05-02T08:50:19;11.60;75.40
47590;DHT22;33316;52.298;9.056;2023-05-02T08:52:52;11.60;74.90
47590;DHT22;33316;52.298;9.056;2023-05-02T08:55:19;11.60;75.30
47590;DHT22;33316;52.298;9.056;2023-05-02T08:57:56;11.60;75.10
47590;DHT22;33316;52.298;9.056;2023-05-02T09:00:23;11.60;74.80
47590;DHT22;33316;52.298;9.056;2023-05-02T09:03:27;11.60;74.60
47590;DHT22;33316;52.298;9.056;2023-05-02T09:06:05;11.60;74.20
47590;DHT22;33316;52.298;9.056;2023-05-02T09:08:33;11.60;74.20
47590;DHT22;33316;52.298;9.056;2023-05-02T09:11:00;11.60;73.90
47590;DHT22;33316;52.298;9.056;2023-05-02T09:13:31;11.60;74.00
47590;DHT22;33316;52.298;9.056;2023-05-02T09:15:59;11.60;73.70
47590;DHT22;33316;52.298;9.056;2023-05-02T09:18:30;11.50;73.40
47590;DHT22;33316;52.298;9.056;2023-05-02T09:20:58;11.50;73.60
47590;DHT22;33316;52.298;9.056;2023-05-02T09:23:36;11.50;73.60
47590;DHT22;33316;52.298;9.056;2023-05-02T09:26:20;11.40;73.50
47590;DHT22;33316;52.298;9.056;2023-05-02T09:28:47;11.40;73.60
47590;DHT22;33316;52.298;9.056;2023-05-02T09:31:16;11.40;73.80
47590;DHT22;33316;52.298;9.056;2023-05-02T09:33:45;11.40;74.00
47590;DHT22;33316;52.298;9.056;2023-05-02T09:36:13;11.40;73.80
47590;DHT22;33316;52.298;9.056;2023-05-02T09:38:40;11.50;73.50
47590;DHT22;33316;52.298;9.056;2023-05-02T09:41:07;11.50;73.40
47590;DHT22;33316;52.298;9.056;2023-05-02T09:43:34;11.50;73.40
47590;DHT22;33316;52.298;9.056;2023-05-02T09:46:03;11.60;73.20
47590;DHT22;33316;52.298;9.056;2023-05-02T09:48:35;11.60;74.10
47590;DHT22;33316;52.298;9.056;2023-05-02T09:51:18;11.60;73.00
47590;DHT22;33316;52.298;9.056;2023-05-02T09:53:46;11.60;73.10
47590;DHT22;33316;52.298;9.056;2023-05-02T09:56:13;11.60;74.00
47590;DHT22;33316;52.298;9.056;2023-05-02T09:58:39;11.70;73.00
47590;DHT22;33316;52.298;9.056;2023-05-02T10:01:06;11.70;73.00
47590;DHT22;33316;52.298;9.056;2023-05-02T10:03:36;11.70;72.60
47590;DHT22;33316;52.298;9.056;2023-05-02T10:06:04;11.70;72.60
47590;DHT22;33316;52.298;9.056;2023-05-02T10:08:35;11.70;72.70
47590;DHT22;33316;52.298;9.056;2023-05-02T10:11:06;11.80;72.70
47590;DHT22;33316;52.298;9.056;2023-05-02T10:13:33;11.80;72.80
47590;DHT22;33316;52.298;9.056;2023-05-02T10:16:02;11.80;72.60
47590;DHT22;33316;52.298;9.056;2023-05-02T10:18:37;11.90;72.40
47590;DHT22;33316;52.298;9.056;2023-05-02T10:21:08;11.90;72.30
47590;DHT22;33316;52.298;9.056;2023-05-02T10:23:40;12.00;72.00
47590;DHT22;33316;52.298;9.056;2023-05-02T10:26:07;12.00;71.70
47590;DHT22;33316;52.298;9.056;2023-05-02T10:28:35;12.00;71.40
47590;DHT22;33316;52.298;9.056;2023-05-02T10:31:04;12.10;71.40
47590;DHT22;33316;52.298;9.056;2023-05-02T10:33:33;12.10;71.20
47590;DHT22;33316;52.298;9.056;2023-05-02T10:36:00;12.20;70.90
47590;DHT22;33316;52.298;9.056;2023-05-02T10:38:28;12.20;70.60
47590;DHT22;33316;52.298;9.056;2023-05-02T10:40:59;12.30;70.30
47590;DHT22;33316;52.298;9.056;2023-05-02T10:43:30;12.30;70.00
47590;DHT22;33316;52.298;9.056;2023-05-02T10:45:58;12.30;70.30
47590;DHT22;33316;52.298;9.056;2023-05-02T10:48:26;12.30;70.00
47590;DHT22;33316;52.298;9.056;2023-05-02T10:50:54;12.30;69.80
47590;DHT22;33316;52.298;9.056;2023-05-02T10:53:25;12.40;69.90
47590;DHT22;33316;52.298;9.056;2023-05-02T10:56:14;12.40;69.40
47590;DHT22;33316;52.298;9.056;2023-05-02T10:58:42;12.50;69.00
47590;DHT22;33316;52.298;9.056;2023-05-02T11:01:34;12.50;68.50
47590;DHT22;33316;52.298;9.056;2023-05-02T11:04:10;12.60;67.50
47590;DHT22;33316;52.298;9.056;2023-05-02T11:07:16;12.70;67.40
47590;DHT22;33316;52.298;9.056;2023-05-02T11:09:42;12.70;66.60
47590;DHT22;33316;52.298;9.056;2023-05-02T11:12:10;12.80;66.50
47590;DHT22;33316;52.298;9.056;2023-05-02T11:14:57;12.80;66.10
47590;DHT22;33316;52.298;9.056;2023-05-02T11:17:24;12.80;65.40
47590;DHT22;33316;52.298;9.056;2023-05-02T11:20:24;12.80;64.90
47590;DHT22;33316;52.298;9.056;2023-05-02T11:22:52;12.90;64.80
47590;DHT22;33316;52.298;9.056;2023-05-02T11:25:33;12.90;64.30
47590;DHT22;33316;52.298;9.056;2023-05-02T11:28:02;13.00;64.30
47590;DHT22;33316;52.298;9.056;2023-05-02T11:30:44;13.00;63.70
47590;DHT22;33316;52.298;9.056;2023-05-02T11:33:16;13.00;62.40
47590;DHT22;33316;52.298;9.056;2023-05-02T11:35:45;13.00;63.00
47590;DHT22;33316;52.298;9.056;2023-05-02T11:38:17;13.00;63.70
47590;DHT22;33316;52.298;9.056;2023-05-02T11:40:56;13.10;63.30
47590;DHT22;33316;52.298;9.056;2023-05-02T11:43:25;13.10;62.00
47590;DHT22;33316;52.298;9.056;2023-05-02T11:45:52;13.10;62.40
47590;DHT22;33316;52.298;9.056;2023-05-02T11:48:21;13.10;62.20
47590;DHT22;33316;52.298;9.056;2023-05-02T11:50:50;13.10;61.10
47590;DHT22;33316;52.298;9.056;2023-05-02T11:53:18;13.10;61.30
47590;DHT22;33316;52.298;9.056;2023-05-02T11:55:48;13.20;61.50
47590;DHT22;33316;52.298;9.056;2023-05-02T11:58:16;13.20;61.10
47590;DHT22;33316;52.298;9.056;2023-05-02T12:00:45;13.30;60.80
47590;DHT22;33316;52.298;9.056;2023-05-02T12:03:25;13.30;60.40
47590;DHT22;33316;52.298;9.056;2023-05-02T12:05:52;13.40;61.20
47590;DHT22;33316;52.298;9.056;2023-05-02T12:08:20;13.40;60.80
47590;DHT22;33316;52.298;9.056;2023-05-02T12:10:49;13.50;60.80
47590;DHT22;33316;52.298;9.056;2023-05-02T12:13:17;13.50;59.50
47590;DHT22;33316;52.298;9.056;2023-05-02T12:15:45;13.50;59.40
47590;DHT22;33316;52.298;9.056;2023-05-02T12:18:13;13.40;58.80
47590;DHT22;33316;52.298;9.056;2023-05-02T12:20:40;13.50;59.50
47590;DHT22;33316;52.298;9.056;2023-05-02T12:23:07;13.50;58.40
47590;DHT22;33316;52.298;9.056;2023-05-02T12:25:37;13.60;59.10
47590;DHT22;33316;52.298;9.056;2023-05-02T12:28:04;13.70;59.30
47590;DHT22;33316;52.298;9.056;2023-05-02T12:30:31;13.70;58.90
47590;DHT22;33316;52.298;9.056;2023-05-02T12:33:00;13.80;59.20
47590;DHT22;33316;52.298;9.056;2023-05-02T12:35:28;13.90;59.10
47590;DHT22;33316;52.298;9.056;2023-05-02T12:38:09;14.00;58.50
47590;DHT22;33316;52.298;9.056;2023-05-02T12:40:36;14.10;58.40
47590;DHT22;33316;52.298;9.056;2023-05-02T12:43:04;14.10;58.60
47590;DHT22;33316;52.298;9.056;2023-05-02T12:45:35;14.20;58.80
47590;DHT22;33316;52.298;9.056;2023-05-02T12:48:16;14.20;58.60
47590;DHT22;33316;52.298;9.056;2023-05-02T12:50:43;14.30;58.00
47590;DHT22;33316;52.298;9.056;2023-05-02T12:53:10;14.40;58.20
47590;DHT22;33316;52.298;9.056;2023-05-02T12:55:37;14.50;58.00
47590;DHT22;33316;52.298;9.056;2023-05-02T12:58:05;14.50;57.60
47590;DHT22;33316;52.298;9.056;2023-05-02T13:00:33;14.60;57.30
47590;DHT22;33316;52.298;9.056;2023-05-02T13:03:00;14.60;57.60
47590;DHT22;33316;52.298;9.056;2023-05-02T13:05:28;14.60;57.40
47590;DHT22;33316;52.298;9.056;2023-05-02T13:07:55;14.60;56.90
47590;DHT22;33316;52.298;9.056;2023-05-02T13:10:22;14.60;57.00
47590;DHT22;33316;52.298;9.056;2023-05-02T13:12:50;14.60;56.50
47590;DHT22;33316;52.298;9.056;2023-05-02T13:15:17;14.60;56.80
47590;DHT22;33316;52.298;9.056;2023-05-02T13:17:44;14.70;56.30
47590;DHT22;33316;52.298;9.056;2023-05-02T13:20:11;14.60;56.20
47590;DHT22;33316;52.298;9.056;2023-05-02T13:22:39;14.60;56.10
47590;DHT22;33316;52.298;9.056;2023-05-02T13:25:07;14.60;56.30
47590;DHT22;33316;52.298;9.056;2023-05-02T13:27:34;14.60;56.40
47590;DHT22;33316;52.298;9.056;2023-05-02T13:30:01;14.60;56.50
47590;DHT22;33316;52.298;9.056;2023-05-02T13:32:28;14.60;56.60
47590;DHT22;33316;52.298;9.056;2023-05-02T13:34:54;14.60;56.60
47590;DHT22;33316;52.298;9.056;2023-05-02T13:37:21;14.60;56.80
47590;DHT22;33316;52.298;9.056;2023-05-02T13:39:49;14.60;56.60
47590;DHT22;33316;52.298;9.056;2023-05-02T13:42:16;14.60;56.10
47590;DHT22;33316;52.298;9.056;2023-05-02T13:44:42;14.60;56.10
47590;DHT22;33316;52.298;9.056;2023-05-02T13:47:09;14.60;55.70
47590;DHT22;33316;52.298;9.056;2023-05-02T13:49:36;14.50;55.60
47590;DHT22;33316;52.298;9.056;2023-05-02T13:52:02;14.60;55.70
47590;DHT22;33316;52.298;9.056;2023-05-02T13:54:32;14.60;55.60
47590;DHT22;33316;52.298;9.056;2023-05-02T13:57:09;14.60;55.00
47590;DHT22;33316;52.298;9.056;2023-05-02T13:59:41;14.60;55.30
47590;DHT22;33316;52.298;9.056;2023-05-02T14:02:08;14.60;54.90
47590;DHT22;33316;52.298;9.056;2023-05-02T14:04:38;14.70;54.60
47590;DHT22;33316;52.298;9.056;2023-05-02T14:07:04;14.70;54.60
47590;DHT22;33316;52.298;9.056;2023-05-02T14:09:34;14.70;54.60
47590;DHT22;33316;52.298;9.056;2023-05-02T14:12:02;14.70;54.00
47590;DHT22;33316;52.298;9.056;2023-05-02T14:14:29;14.80;54.30
47590;DHT22;33316;52.298;9.056;2023-05-02T14:16:56;14.80;54.60
47590;DHT22;33316;52.298;9.056;2023-05-02T14:19:25;14.80;54.20
47590;DHT22;33316;52.298;9.056;2023-05-02T14:21:52;14.80;53.80
47590;DHT22;33316;52.298;9.056;2023-05-02T14:24:19;14.80;53.80
47590;DHT22;33316;52.298;9.056;2023-05-02T14:26:52;14.80;54.20
47590;DHT22;33316;52.298;9.056;2023-05-02T14:29:31;14.80;54.10
47590;DHT22;33316;52.298;9.056;2023-05-02T14:31:58;14.60;53.60
47590;DHT22;33316;52.298;9.056;2023-05-02T14:34:27;14.60;53.70
47590;DHT22;33316;52.298;9.056;2023-05-02T14:36:54;14.50;53.90
47590;DHT22;33316;52.298;9.056;2023-05-02T14:39:24;14.40;54.00
47590;DHT22;33316;52.298;9.056;2023-05-02T14:41:52;14.40;54.20
47590;DHT22;33316;52.298;9.056;2023-05-02T14:44:34;14.40;54.10
47590;DHT22;33316;52.298;9.056;2023-05-02T14:47:02;14.40;54.20
47590;DHT22;33316;52.298;9.056;2023-05-02T14:49:30;14.40;54.40
47590;DHT22;33316;52.298;9.056;2023-05-02T14:51:56;14.40;54.80
47590;DHT22;33316;52.298;9.056;2023-05-02T14:54:26;14.40;54.40
47590;DHT22;33316;52.298;9.056;2023-05-02T14:56:53;14.40;54.40
47590;DHT22;33316;52.298;9.056;2023-05-02T14:59:22;14.40;54.80
47590;DHT22;33316;52.298;9.056;2023-05-02T15:01:51;14.40;54.40
47590;DHT22;33316;52.298;9.056;2023-05-02T15:04:23;14.30;54.20
47590;DHT22;33316;52.298;9.056;2023-05-02T15:06:51;14.30;54.70
47590;DHT22;33316;52.298;9.056;2023-05-02T15:09:19;14.30;54.90
47590;DHT22;33316;52.298;9.056;2023-05-02T15:11:50;14.30;54.80
47590;DHT22;33316;52.298;9.056;2023-05-02T15:14:28;14.20;54.30
47590;DHT22;33316;52.298;9.056;2023-05-02T15:17:16;14.20;54.90
47590;DHT22;33316;52.298;9.056;2023-05-02T15:19:46;14.10;55.20
47590;DHT22;33316;52.298;9.056;2023-05-02T15:22:26;14.20;55.30
47590;DHT22;33316;52.298;9.056;2023-05-02T15:24:54;14.20;55.30
47590;DHT22;33316;52.298;9.056;2023-05-02T15:27:23;14.10;55.20
47590;DHT22;33316;52.298;9.056;2023-05-02T15:29:50;14.20;54.70
47590;DHT22;33316;52.298;9.056;2023-05-02T15:32:27;14.20;54.70
47590;DHT22;33316;52.298;9.056;2023-05-02T15:35:01;14.20;54.50
47590;DHT22;33316;52.298;9.056;2023-05-02T15:37:28;14.10;54.30
47590;DHT22;33316;52.298;9.056;2023-05-02T15:39:56;14.10;54.30
47590;DHT22;33316;52.298;9.056;2023-05-02T15:42:24;14.10;54.90